Time;durP1;ratioP1;P1;durP2;ratioP2;P2;SDS_P1;SDS_P2;PMS_P1;PMS_P2;Temp;Humidity;BMP_temperature;BMP_pressure;BME280_temperature;BME280_humidity;BME280_pressure;Samples;Min_cycle;Max_cycle;Signal;HPM_P1;HPM_P2
2023/06/20 00:01:04;;;;;;;;;;;;;;;;;;5070117;28;20009;-65
2023/06/20 00:03:29;;;;;;;;;;;;;;;;;;5060388;28;20006;-65
2023/06/20 00:05:55;;;;;;;;;;;;;;;;;;5071154;28;20341;-65
2023/06/20 00:08:21;;;;;;;;;;;;;;;;;;5065132;28;19995;-65
2023/06/20 00:10:47;;;;;;;;;;;;;;;;;;5061261;28;19939;-65
2023/06/20 00:13:13;;;;;;;;;;;;;;;;;;5056299;28;19949;-65
2023/06/20 00:15:41;;;;;;;;;;;;;;;;;;5057288;28;19917;-66
2023/06/20 00:18:07;;;;;;;;;;;;;;;;;;5062325;28;19912;-65
2023/06/20 00:20:32;;;;;;;;;;;;;;;;;;5062164;28;20011;-65
2023/06/20 00:23:00;;;;;;;;;;;;;;;;;;5064357;28;19916;-65
2023/06/20 00:25:26;;;;;;;;;;;;;;;;;;5069184;28;19920;-66
2023/06/20 00:27:52;;;;;;;;;;;;;;;;;;5059318;28;19998;-65
2023/06/20 00:30:18;;;;;;;;;;;;;;;;;;5065126;28;19980;-65
2023/06/20 00:32:43;;;;;;;;;;;;;;;;;;5068007;28;19916;-65
2023/06/20 00:35:09;;;;;;;;;;;;;;;;;;5067769;28;20330;-65
2023/06/20 00:37:38;;;;;;;;;;;;;;;;;;5059656;28;19952;-65
2023/06/20 00:40:06;;;;;;;;;;;;;;;;;;5071916;28;19921;-65
2023/06/20 00:42:32;;;;;;;;;;;;;;;;;;5059731;28;19920;-65
2023/06/20 00:44:57;;;;;;;;;;;;;;;;;;5065663;28;20356;-65
2023/06/20 00:47:24;;;;;;;;;;;;;;;;;;5064930;28;19917;-65
2023/06/20 00:49:49;;;;;;;;;;;;;;;;;;5069344;28;19924;-65
2023/06/20 00:52:15;;;;;;;;;;;;;;;;;;5070100;28;19912;-65
2023/06/20 00:54:41;;;;;;;;;;;;;;;;;;5071750;28;19913;-65
2023/06/20 00:57:07;;;;;;;;;;;;;;;;;;5059217;28;20471;-66
2023/06/20 00:59:33;;;;;;;;;;;;;;;;;;5059400;28;19912;-65
2023/06/20 01:01:59;;;;;;;;;;;;;;;;;;5070056;28;19917;-65
2023/06/20 01:04:26;;;;;;;;;;;;;;;;;;5072111;28;19962;-65
2023/06/20 01:06:51;;;;;;;;;;;;;;;;;;5061796;28;19978;-66
2023/06/20 01:09:18;;;;;;;;;;;;;;;;;;5065823;28;20365;-65
2023/06/20 01:11:44;;;;;;;;;;;;;;;;;;5066067;28;19924;-65
2023/06/20 01:14:10;;;;;;;;;;;;;;;;;;5071476;28;20284;-65
2023/06/20 01:16:36;;;;;;;;;;;;;;;;;;5065622;28;20006;-65
2023/06/20 01:19:03;;;;;;;;;;;;;;;;;;5066943;28;20408;-65
2023/06/20 01:21:30;;;;;;;;;;;;;;;;;;5066363;28;19913;-65
2023/06/20 01:23:55;;;;;;;;;;;;;;;;;;5069985;28;20401;-65
2023/06/20 01:26:21;;;;;;;;;;;;;;;;;;5071014;28;20011;-65
2023/06/20 01:28:50;;;;;;;;;;;;;;;;;;5067878;28;19921;-65
2023/06/20 01:31:16;;;;;;;;;;;;;;;;;;5069983;28;20292;-65
2023/06/20 01:33:42;;;;;;;;;;;;;;;;;;5054677;28;19951;-65
2023/06/20 01:36:08;;;;;;;;;;;;;;;;;;5063025;28;19923;-65
2023/06/20 01:38:33;;;;;;;;;;;;;;;;;;5072387;28;20361;-65
2023/06/20 01:40:59;;;;;;;;;;;;;;;;;;5074592;28;19951;-65
2023/06/20 01:43:25;;;;;;;;;;;;;;;;;;5069791;28;19959;-65
2023/06/20 01:45:51;;;;;;;;;;;;;;;;;;5074771;28;19959;-65
2023/06/20 01:48:17;;;;;;;;;;;;;;;;;;5053049;28;20019;-65
2023/06/20 01:50:43;;;;;;;;;;;;;;;;;;5072408;28;20030;-65
2023/06/20 01:53:09;;;;;;;;;;;;;;;;;;5071190;28;19912;-65
2023/06/20 01:55:35;;;;;;;;;;;;;;;;;;5065238;28;19912;-65
2023/06/20 01:58:01;;;;;;;;;;;;;;;;;;5071604;28;19946;-65
2023/06/20 02:00:27;;;;;;;;;;;;;;;;;;5073923;28;20295;-65
2023/06/20 02:02:54;;;;;;;;;;;;;;;;;;5074552;28;19916;-65
2023/06/20 02:05:20;;;;;;;;;;;;;;;;;;5070691;28;19956;-65
2023/06/20 02:07:45;;;;;;;;;;;;;;;;;;5062599;28;20358;-65
2023/06/20 02:10:11;;;;;;;;;;;;;;;;;;5058750;28;19948;-65
2023/06/20 02:12:37;;;;;;;;;;;;;;;;;;5064506;28;19927;-65
2023/06/20 02:15:03;;;;;;;;;;;;;;;;;;5065177;28;20368;-65
2023/06/20 02:17:29;;;;;;;;;;;;;;;;;;5073460;28;19917;-65
2023/06/20 02:19:55;;;;;;;;;;;;;;;;;;5059989;28;19965;-65
2023/06/20 02:22:21;;;;;;;;;;;;;;;;;;5054974;28;19938;-65
2023/06/20 02:24:47;;;;;;;;;;;;;;;;;;5057829;28;19940;-66
2023/06/20 02:27:13;;;;;;;;;;;;;;;;;;5054666;28;20306;-65
2023/06/20 02:29:39;;;;;;;;;;;;;;;;;;5063494;28;19923;-65
2023/06/20 02:32:05;;;;;;;;;;;;;;;;;;5070851;28;20021;-65
2023/06/20 02:34:31;;;;;;;;;;;;;;;;;;5070696;28;19920;-65
2023/06/20 02:36:58;;;;;;;;;;;;;;;;;;5066643;28;19919;-65
2023/06/20 02:39:24;;;;;;;;;;;;;;;;;;5094350;28;19912;-65
2023/06/20 02:41:49;;;;;;;;;;;;;;;;;;5081859;28;20355;-65
2023/06/20 02:44:15;;;;;;;;;;;;;;;;;;5079588;28;19991;-65
2023/06/20 02:46:41;;;;;;;;;;;;;;;;;;5072099;28;20023;-65
2023/06/20 02:49:07;;;;;;;;;;;;;;;;;;5070903;28;20679;-65
2023/06/20 02:51:33;;;;;;;;;;;;;;;;;;5071615;28;19920;-65
2023/06/20 02:53:59;;;;;;;;;;;;;;;;;;5072825;28;20344;-65
2023/06/20 02:56:25;;;;;;;;;;;;;;;;;;5073134;28;19912;-65
2023/06/20 02:58:51;;;;;;;;;;;;;;;;;;5056771;28;19935;-65
2023/06/20 03:01:17;;;;;;;;;;;;;;;;;;5059080;28;19916;-65
2023/06/20 03:03:42;;;;;;;;;;;;;;;;;;5071772;28;20016;-65
2023/06/20 03:06:08;;;;;;;;;;;;;;;;;;5072990;28;20031;-65
2023/06/20 03:08:35;;;;;;;;;;;;;;;;;;5072629;28;19909;-65
2023/06/20 03:11:01;;;;;;;;;;;;;;;;;;5072629;28;20432;-65
2023/06/20 03:13:26;;;;;;;;;;;;;;;;;;5072981;28;19909;-65
2023/06/20 03:15:55;;;;;;;;;;;;;;;;;;5071881;28;19913;-65
2023/06/20 03:18:20;;;;;;;;;;;;;;;;;;5065496;28;19916;-65
2023/06/20 03:20:47;;;;;;;;;;;;;;;;;;5068052;28;19935;-65
2023/06/20 03:23:13;;;;;;;;;;;;;;;;;;5071554;28;19913;-65
2023/06/20 03:25:39;;;;;;;;;;;;;;;;;;5059723;28;20434;-65
2023/06/20 03:28:05;;;;;;;;;;;;;;;;;;5068962;28;19918;-65
2023/06/20 03:30:31;;;;;;;;;;;;;;;;;;5071545;28;19959;-65
2023/06/20 03:32:57;;;;;;;;;;;;;;;;;;5071215;28;19950;-65
2023/06/20 03:35:23;;;;;;;;;;;;;;;;;;5069125;28;19952;-65
2023/06/20 03:37:49;;;;;;;;;;;;;;;;;;5072433;28;19908;-65
2023/06/20 03:40:15;;;;;;;;;;;;;;;;;;5071680;28;19919;-65
2023/06/20 03:42:41;;;;;;;;;;;;;;;;;;5072295;28;19912;-65
2023/06/20 03:45:07;;;;;;;;;;;;;;;;;;5072320;28;20321;-65
2023/06/20 03:47:33;;;;;;;;;;;;;;;;;;5072440;28;19909;-65
2023/06/20 03:49:59;;;;;;;;;;;;;;;;;;5055176;28;20011;-65
2023/06/20 03:52:25;;;;;;;;;;;;;;;;;;5052087;28;19952;-65
2023/06/20 03:54:51;;;;;;;;;;;;;;;;;;5051995;28;19967;-65
2023/06/20 03:57:17;;;;;;;;;;;;;;;;;;5052120;28;19916;-66
2023/06/20 03:59:43;;;;;;;;;;;;;;;;;;5058374;28;19936;-65
2023/06/20 04:02:09;;;;;;;;;;;;;;;;;;5068670;28;19952;-65
2023/06/20 04:04:35;;;;;;;;;;;;;;;;;;5055780;28;20004;-65
2023/06/20 04:07:01;;;;;;;;;;;;;;;;;;5063783;28;20015;-65
2023/06/20 04:09:26;;;;;;;;;;;;;;;;;;5070103;28;20016;-65
2023/06/20 04:11:52;;;;;;;;;;;;;;;;;;5068953;28;19959;-65
2023/06/20 04:14:18;;;;;;;;;;;;;;;;;;5067340;28;19917;-65
2023/06/20 04:16:44;;;;;;;;;;;;;;;;;;5061568;28;19920;-66
2023/06/20 04:19:10;;;;;;;;;;;;;;;;;;5070454;28;19913;-66
2023/06/20 04:21:36;;;;;;;;;;;;;;;;;;5070857;28;20026;-66
2023/06/20 04:24:02;;;;;;;;;;;;;;;;;;5066520;28;20005;-66
2023/06/20 04:26:29;;;;;;;;;;;;;;;;;;5068289;28;19933;-65
2023/06/20 04:28:55;;;;;;;;;;;;;;;;;;5065229;28;20396;-65
2023/06/20 04:31:21;;;;;;;;;;;;;;;;;;5061303;28;20005;-65
2023/06/20 04:33:47;;;;;;;;;;;;;;;;;;5053881;28;19913;-65
2023/06/20 04:36:13;;;;;;;;;;;;;;;;;;5054890;28;20364;-65
2023/06/20 04:38:38;;;;;;;;;;;;;;;;;;5069340;28;19912;-65
2023/06/20 04:41:04;;;;;;;;;;;;;;;;;;5069970;28;20261;-66
2023/06/20 04:43:30;;;;;;;;;;;;;;;;;;5069789;28;19947;-65
2023/06/20 04:45:56;;;;;;;;;;;;;;;;;;5063907;28;19925;-65
2023/06/20 04:48:22;;;;;;;;;;;;;;;;;;5076568;28;19908;-65
2023/06/20 04:50:48;;;;;;;;;;;;;;;;;;5073119;28;19951;-66
2023/06/20 04:53:15;;;;;;;;;;;;;;;;;;5058606;28;19920;-66
2023/06/20 04:55:41;;;;;;;;;;;;;;;;;;5064507;28;20003;-66
2023/06/20 04:58:07;;;;;;;;;;;;;;;;;;5066723;28;20347;-66
2023/06/20 05:00:37;;;;;;;;;;;;;;;;;;5069527;28;19912;-65
2023/06/20 05:03:02;;;;;;;;;;;;;;;;;;5055785;28;19912;-66
2023/06/20 05:05:29;;;;;;;;;;;;;;;;;;5066757;28;20008;-65
2023/06/20 05:07:56;;;;;;;;;;;;;;;;;;5064197;28;19966;-65
2023/06/20 05:10:22;;;;;;;;;;;;;;;;;;5063235;28;20982;-65
2023/06/20 05:12:48;;;;;;;;;;;;;;;;;;5067657;28;20011;-66
2023/06/20 05:15:14;;;;;;;;;;;;;;;;;;5071801;28;19912;-65
2023/06/20 05:17:40;;;;;;;;;;;;;;;;;;5070685;28;20361;-65
2023/06/20 05:20:06;;;;;;;;;;;;;;;;;;5062772;28;19916;-66
2023/06/20 05:22:33;;;;;;;;;;;;;;;;;;5071650;28;19935;-66
2023/06/20 05:24:59;;;;;;;;;;;;;;;;;;5072460;28;20079;-66
2023/06/20 05:27:25;;;;;;;;;;;;;;;;;;5074968;28;20042;-65
2023/06/20 05:29:51;;;;;;;;;;;;;;;;;;5074321;28;19962;-65
2023/06/20 05:32:17;;;;;;;;;;;;;;;;;;5069951;28;19999;-65
2023/06/20 05:34:43;;;;;;;;;;;;;;;;;;5073851;28;19919;-66
2023/06/20 05:37:08;;;;;;;;;;;;;;;;;;5068490;28;19921;-65
2023/06/20 05:39:34;;;;;;;;;;;;;;;;;;5068404;28;19935;-66
2023/06/20 05:42:00;;;;;;;;;;;;;;;;;;5069631;28;20021;-65
2023/06/20 05:44:26;;;;;;;;;;;;;;;;;;5068766;28;19961;-66
2023/06/20 05:46:53;;;;;;;;;;;;;;;;;;5067799;28;19973;-66
2023/06/20 05:49:21;;;;;;;;;;;;;;;;;;5073140;28;19955;-66
2023/06/20 05:51:47;;;;;;;;;;;;;;;;;;5054965;28;19908;-65
2023/06/20 05:54:13;;;;;;;;;;;;;;;;;;5072822;28;19995;-66
2023/06/20 05:56:39;;;;;;;;;;;;;;;;;;5071668;28;20007;-66
2023/06/20 05:59:05;;;;;;;;;;;;;;;;;;5069354;28;19912;-66
2023/06/20 06:01:31;;;;;;;;;;;;;;;;;;5069721;28;19942;-66
2023/06/20 06:03:57;;;;;;;;;;;;;;;;;;5071678;28;20358;-65
2023/06/20 06:06:24;;;;;;;;;;;;;;;;;;5075530;28;19912;-66
2023/06/20 06:08:50;;;;;;;;;;;;;;;;;;5069746;28;20949;-65
2023/06/20 06:11:16;;;;;;;;;;;;;;;;;;5069081;28;20613;-66
2023/06/20 06:13:42;;;;;;;;;;;;;;;;;;5063487;28;19944;-66
2023/06/20 06:16:08;;;;;;;;;;;;;;;;;;5050365;28;19955;-66
2023/06/20 06:18:34;;;;;;;;;;;;;;;;;;5061678;28;19913;-65
2023/06/20 06:21:00;;;;;;;;;;;;;;;;;;5072723;28;19995;-65
2023/06/20 06:23:26;;;;;;;;;;;;;;;;;;5071898;28;19939;-65
2023/06/20 06:25:52;;;;;;;;;;;;;;;;;;5072280;28;19955;-65
2023/06/20 06:28:18;;;;;;;;;;;;;;;;;;5072626;28;19912;-65
2023/06/20 06:30:43;;;;;;;;;;;;;;;;;;5093412;28;19977;-65
2023/06/20 06:33:09;;;;;;;;;;;;;;;;;;5079657;28;19974;-65
2023/06/20 06:35:35;;;;;;;;;;;;;;;;;;5073501;28;19909;-65
2023/06/20 06:38:01;;;;;;;;;;;;;;;;;;5069928;28;19958;-66
2023/06/20 06:40:27;;;;;;;;;;;;;;;;;;5071697;28;19967;-65
2023/06/20 06:42:53;;;;;;;;;;;;;;;;;;5068641;28;19959;-65
2023/06/20 06:45:19;;;;;;;;;;;;;;;;;;5073251;28;20360;-65
2023/06/20 06:47:45;;;;;;;;;;;;;;;;;;5071547;28;19912;-65
2023/06/20 06:50:11;;;;;;;;;;;;;;;;;;5064226;28;19920;-65
2023/06/20 06:52:37;;;;;;;;;;;;;;;;;;5073342;28;20003;-65
2023/06/20 06:55:03;;;;;;;;;;;;;;;;;;5067286;28;19917;-65
2023/06/20 06:57:28;;;;;;;;;;;;;;;;;;5057987;28;20281;-65
2023/06/20 06:59:54;;;;;;;;;;;;;;;;;;5073735;28;20392;-65
2023/06/20 07:02:21;;;;;;;;;;;;;;;;;;5070448;28;19912;-66
2023/06/20 07:04:47;;;;;;;;;;;;;;;;;;5070838;28;19928;-65
2023/06/20 07:07:13;;;;;;;;;;;;;;;;;;5083125;28;20025;-65
2023/06/20 07:09:39;;;;;;;;;;;;;;;;;;5072379;28;20411;-65
2023/06/20 07:12:05;;;;;;;;;;;;;;;;;;5069051;28;20681;-65
2023/06/20 07:14:33;;;;;;;;;;;;;;;;;;5071904;28;19959;-65
2023/06/20 07:16:59;;;;;;;;;;;;;;;;;;5072431;28;19973;-65
2023/06/20 07:19:25;;;;;;;;;;;;;;;;;;5069985;28;19916;-65
2023/06/20 07:21:51;;;;;;;;;;;;;;;;;;5072149;28;19919;-65
2023/06/20 07:24:17;;;;;;;;;;;;;;;;;;5072609;28;19951;-65
2023/06/20 07:26:42;;;;;;;;;;;;;;;;;;5072469;28;20354;-65
2023/06/20 07:29:08;;;;;;;;;;;;;;;;;;5065077;28;19921;-65
2023/06/20 07:31:34;;;;;;;;;;;;;;;;;;5061251;28;19956;-65
2023/06/20 07:34:00;;;;;;;;;;;;;;;;;;5063997;28;20006;-65
2023/06/20 07:36:26;;;;;;;;;;;;;;;;;;5072444;28;19915;-65
2023/06/20 07:38:52;;;;;;;;;;;;;;;;;;5071279;28;20421;-66
2023/06/20 07:41:18;;;;;;;;;;;;;;;;;;5071906;28;20007;-66
2023/06/20 07:43:44;;;;;;;;;;;;;;;;;;5069414;28;19909;-65
2023/06/20 07:46:10;;;;;;;;;;;;;;;;;;5069495;28;20356;-65
2023/06/20 07:48:35;;;;;;;;;;;;;;;;;;5071630;28;19963;-65
2023/06/20 07:51:01;;;;;;;;;;;;;;;;;;5070461;28;20338;-66
2023/06/20 07:53:27;;;;;;;;;;;;;;;;;;5050153;28;19927;-65
2023/06/20 07:55:56;;;;;;;;;;;;;;;;;;5067886;28;19913;-65
2023/06/20 07:58:22;;;;;;;;;;;;;;;;;;5070863;28;20010;-65
2023/06/20 08:00:48;;;;;;;;;;;;;;;;;;5064230;28;20368;-65
2023/06/20 08:03:14;;;;;;;;;;;;;;;;;;5061525;28;19912;-65
2023/06/20 08:05:40;;;;;;;;;;;;;;;;;;5070363;28;19960;-65
2023/06/20 08:08:06;;;;;;;;;;;;;;;;;;5064507;28;19948;-65
2023/06/20 08:10:32;;;;;;;;;;;;;;;;;;5063601;28;20370;-65
2023/06/20 08:12:58;;;;;;;;;;;;;;;;;;5078159;28;19914;-65
2023/06/20 08:15:24;;;;;;;;;;;;;;;;;;5083902;28;19948;-65
2023/06/20 08:17:49;;;;;;;;;;;;;;;;;;5067129;28;19916;-66
2023/06/20 08:20:15;;;;;;;;;;;;;;;;;;5069390;28;19958;-66
2023/06/20 08:22:41;;;;;;;;;;;;;;;;;;5059491;28;20388;-65
2023/06/20 08:25:07;;;;;;;;;;;;;;;;;;5070252;28;19917;-65
2023/06/20 08:27:33;;;;;;;;;;;;;;;;;;5062827;28;20311;-65
2023/06/20 08:29:59;;;;;;;;;;;;;;;;;;5059444;28;19967;-65
2023/06/20 08:32:25;;;;;;;;;;;;;;;;;;5069077;28;19927;-65
2023/06/20 08:34:51;;;;;;;;;;;;;;;;;;5071171;28;19919;-66
2023/06/20 08:37:17;;;;;;;;;;;;;;;;;;5091448;28;19943;-65
2023/06/20 08:39:43;;;;;;;;;;;;;;;;;;5073493;28;20009;-65
2023/06/20 08:42:08;;;;;;;;;;;;;;;;;;5066270;28;20015;-65
2023/06/20 08:44:34;;;;;;;;;;;;;;;;;;5071370;28;19971;-66
2023/06/20 08:47:00;;;;;;;;;;;;;;;;;;5066969;28;19916;-65
2023/06/20 08:49:26;;;;;;;;;;;;;;;;;;5070837;28;19920;-66
2023/06/20 08:51:52;;;;;;;;;;;;;;;;;;5059382;28;20006;-66
2023/06/20 08:54:20;;;;;;;;;;;;;;;;;;5071127;28;19970;-66
2023/06/20 08:56:46;;;;;;;;;;;;;;;;;;5071093;28;19930;-66
2023/06/20 08:59:12;;;;;;;;;;;;;;;;;;5071172;28;19909;-66
2023/06/20 09:01:38;;;;;;;;;;;;;;;;;;5069809;28;19958;-65
2023/06/20 09:04:05;;;;;;;;;;;;;;;;;;5071340;28;19954;-66
2023/06/20 09:06:31;;;;;;;;;;;;;;;;;;5070459;28;19938;-66
2023/06/20 09:08:56;;;;;;;;;;;;;;;;;;5063024;28;19959;-65
2023/06/20 09:11:22;;;;;;;;;;;;;;;;;;5069765;28;19912;-65
2023/06/20 09:13:48;;;;;;;;;;;;;;;;;;5071152;28;19912;-66
2023/06/20 09:16:14;;;;;;;;;;;;;;;;;;5071084;28;19923;-65
2023/06/20 09:18:40;;;;;;;;;;;;;;;;;;5068921;28;20391;-65
2023/06/20 09:21:06;;;;;;;;;;;;;;;;;;5066562;28;19916;-65
2023/06/20 09:23:32;;;;;;;;;;;;;;;;;;5070801;28;19991;-66
2023/06/20 09:25:58;;;;;;;;;;;;;;;;;;5068811;28;20417;-66
2023/06/20 09:28:24;;;;;;;;;;;;;;;;;;5071033;28;20003;-66
2023/06/20 09:30:50;;;;;;;;;;;;;;;;;;5070664;28;19953;-66
2023/06/20 09:33:16;;;;;;;;;;;;;;;;;;5068158;28;19963;-66
2023/06/20 09:35:42;;;;;;;;;;;;;;;;;;5071061;28;19943;-67
2023/06/20 09:38:08;;;;;;;;;;;;;;;;;;5070632;28;19931;-67
2023/06/20 09:40:34;;;;;;;;;;;;;;;;;;5070150;28;19912;-67
2023/06/20 09:42:59;;;;;;;;;;;;;;;;;;5070699;28;20510;-68
2023/06/20 09:45:25;;;;;;;;;;;;;;;;;;5069487;28;19961;-68
2023/06/20 09:47:51;;;;;;;;;;;;;;;;;;5070833;28;19916;-68
2023/06/20 09:50:19;;;;;;;;;;;;;;;;;;5062243;28;19944;-69
2023/06/20 09:52:45;;;;;;;;;;;;;;;;;;5049948;28;20003;-69
2023/06/20 09:55:11;;;;;;;;;;;;;;;;;;5061849;28;20403;-69
2023/06/20 09:57:37;;;;;;;;;;;;;;;;;;5073251;28;19908;-69
2023/06/20 10:00:11;;;;;;;;;;;;;;;;;;5072363;28;19966;-69
2023/06/20 10:02:37;;;;;;;;;;;;;;;;;;5065186;28;19999;-69
2023/06/20 10:05:03;;;;;;;;;;;;;;;;;;5074078;28;19948;-69
2023/06/20 10:07:29;;;;;;;;;;;;;;;;;;5070774;28;19942;-69
2023/06/20 10:09:56;;;;;;;;;;;;;;;;;;5069734;28;19912;-69
2023/06/20 10:12:22;;;;;;;;;;;;;;;;;;5071247;28;19919;-69
2023/06/20 10:14:48;;;;;;;;;;;;;;;;;;5074268;28;19917;-69
2023/06/20 10:17:15;;;;;;;;;;;;;;;;;;5073939;28;19959;-69
2023/06/20 10:19:40;;;;;;;;;;;;;;;;;;5074117;28;19908;-69
2023/06/20 10:22:06;;;;;;;;;;;;;;;;;;5073635;28;20045;-69
2023/06/20 10:24:32;;;;;;;;;;;;;;;;;;5073749;28;20046;-69
2023/06/20 10:27:01;;;;;;;;;;;;;;;;;;5073943;28;19920;-69
2023/06/20 10:29:27;;;;;;;;;;;;;;;;;;5072443;28;20387;-69
2023/06/20 10:31:53;;;;;;;;;;;;;;;;;;5073602;28;19909;-69
2023/06/20 10:34:19;;;;;;;;;;;;;;;;;;5073704;28;20053;-69
2023/06/20 10:36:45;;;;;;;;;;;;;;;;;;5060421;28;19908;-69
2023/06/20 10:39:11;;;;;;;;;;;;;;;;;;5073272;28;19984;-69
2023/06/20 10:41:37;;;;;;;;;;;;;;;;;;5073635;28;20285;-69
2023/06/20 10:44:03;;;;;;;;;;;;;;;;;;5058711;28;19959;-69
2023/06/20 10:46:29;;;;;;;;;;;;;;;;;;5053276;28;20039;-69
2023/06/20 10:48:55;;;;;;;;;;;;;;;;;;5053545;28;20337;-69
2023/06/20 10:51:21;;;;;;;;;;;;;;;;;;5053101;28;20354;-69
2023/06/20 10:53:47;;;;;;;;;;;;;;;;;;5053323;28;20008;-69
2023/06/20 10:56:13;;;;;;;;;;;;;;;;;;5053382;28;19954;-69
2023/06/20 10:58:39;;;;;;;;;;;;;;;;;;5063363;28;19962;-69
2023/06/20 11:01:07;;;;;;;;;;;;;;;;;;5068360;28;19938;-69
2023/06/20 11:03:33;;;;;;;;;;;;;;;;;;5073337;28;19915;-69
2023/06/20 11:05:59;;;;;;;;;;;;;;;;;;5077658;28;19912;-69
2023/06/20 11:08:25;;;;;;;;;;;;;;;;;;5069539;28;19912;-69
2023/06/20 11:10:51;;;;;;;;;;;;;;;;;;5066056;28;20364;-69
2023/06/20 11:13:17;;;;;;;;;;;;;;;;;;5063745;28;19999;-69
2023/06/20 11:15:43;;;;;;;;;;;;;;;;;;5067798;28;20008;-69
2023/06/20 11:18:09;;;;;;;;;;;;;;;;;;5045315;28;19956;-69
2023/06/20 11:20:36;;;;;;;;;;;;;;;;;;5070225;28;19912;-69
2023/06/20 11:23:02;;;;;;;;;;;;;;;;;;5058725;28;20007;-69
2023/06/20 11:25:28;;;;;;;;;;;;;;;;;;5062736;28;19997;-69
2023/06/20 11:27:54;;;;;;;;;;;;;;;;;;5055236;28;20320;-69
2023/06/20 11:30:20;;;;;;;;;;;;;;;;;;5086730;28;19948;-69
2023/06/20 11:32:46;;;;;;;;;;;;;;;;;;5068172;28;20388;-69
2023/06/20 11:35:13;;;;;;;;;;;;;;;;;;5058654;28;19908;-69
2023/06/20 11:37:42;;;;;;;;;;;;;;;;;;5069553;28;19916;-69
2023/06/20 11:40:09;;;;;;;;;;;;;;;;;;5070447;28;19977;-68
2023/06/20 11:42:35;;;;;;;;;;;;;;;;;;5054832;28;19959;-69
2023/06/20 11:45:01;;;;;;;;;;;;;;;;;;5071804;28;19916;-68
2023/06/20 11:47:27;;;;;;;;;;;;;;;;;;5072391;28;19947;-68
2023/06/20 11:49:56;;;;;;;;;;;;;;;;;;5072009;28;20412;-68
2023/06/20 11:52:24;;;;;;;;;;;;;;;;;;5072362;28;19917;-68
2023/06/20 11:54:51;;;;;;;;;;;;;;;;;;5069615;28;19913;-68
2023/06/20 11:57:17;;;;;;;;;;;;;;;;;;5068842;28;19920;-68
2023/06/20 11:59:43;;;;;;;;;;;;;;;;;;5071779;28;19919;-68
2023/06/20 12:02:09;;;;;;;;;;;;;;;;;;5067577;28;19917;-68
2023/06/20 12:04:42;;;;;;;;;;;;;;;;;;5071629;28;20276;-68
2023/06/20 12:07:08;;;;;;;;;;;;;;;;;;5075667;28;19919;-68
2023/06/20 12:09:34;;;;;;;;;;;;;;;;;;5066556;28;20233;-68
2023/06/20 12:12:00;;;;;;;;;;;;;;;;;;5062892;28;19951;-67
2023/06/20 12:14:26;;;;;;;;;;;;;;;;;;5052649;28;19909;-68
2023/06/20 12:16:52;;;;;;;;;;;;;;;;;;5062690;28;19916;-68
2023/06/20 12:19:19;;;;;;;;;;;;;;;;;;5068210;28;19952;-68
2023/06/20 12:21:45;;;;;;;;;;;;;;;;;;5059022;28;20293;-68
2023/06/20 12:24:11;;;;;;;;;;;;;;;;;;5064669;28;19916;-68
2023/06/20 12:26:37;;;;;;;;;;;;;;;;;;5063348;28;20384;-66
2023/06/20 12:29:03;;;;;;;;;;;;;;;;;;5058855;28;19955;-68
2023/06/20 12:31:29;;;;;;;;;;;;;;;;;;5053437;28;19971;-68
2023/06/20 12:33:55;;;;;;;;;;;;;;;;;;5053147;28;19952;-68
2023/06/20 12:36:20;;;;;;;;;;;;;;;;;;5052333;28;20403;-68
2023/06/20 12:38:46;;;;;;;;;;;;;;;;;;5056391;28;19913;-68
2023/06/20 12:41:12;;;;;;;;;;;;;;;;;;5056507;28;19913;-68
2023/06/20 12:43:38;;;;;;;;;;;;;;;;;;5064635;28;19960;-68
2023/06/20 12:46:04;;;;;;;;;;;;;;;;;;5041618;28;19920;-68
2023/06/20 12:48:30;;;;;;;;;;;;;;;;;;5064149;28;19922;-68
2023/06/20 12:50:56;;;;;;;;;;;;;;;;;;5056333;28;20344;-68
2023/06/20 12:53:22;;;;;;;;;;;;;;;;;;5064204;28;19912;-68
2023/06/20 12:55:48;;;;;;;;;;;;;;;;;;5070947;28;19965;-68
2023/06/20 12:58:14;;;;;;;;;;;;;;;;;;5071259;28;19909;-68
2023/06/20 13:00:40;;;;;;;;;;;;;;;;;;5066559;28;20023;-68
2023/06/20 13:03:06;;;;;;;;;;;;;;;;;;5068717;28;20432;-67
2023/06/20 13:05:33;;;;;;;;;;;;;;;;;;5057200;28;20313;-67
2023/06/20 13:07:59;;;;;;;;;;;;;;;;;;5066837;28;19920;-67
2023/06/20 13:10:25;;;;;;;;;;;;;;;;;;5063326;28;20364;-67
2023/06/20 13:12:54;;;;;;;;;;;;;;;;;;5065889;28;19912;-67
2023/06/20 13:15:24;;;;;;;;;;;;;;;;;;5070423;28;19908;-67
2023/06/20 13:17:50;;;;;;;;;;;;;;;;;;5050693;28;19913;-67
2023/06/20 13:20:16;;;;;;;;;;;;;;;;;;5066158;28;19913;-67
2023/06/20 13:22:42;;;;;;;;;;;;;;;;;;5066092;28;19977;-67
2023/06/20 13:25:08;;;;;;;;;;;;;;;;;;5068406;28;19935;-67
2023/06/20 13:27:34;;;;;;;;;;;;;;;;;;5063465;28;20621;-67
2023/06/20 13:30:00;;;;;;;;;;;;;;;;;;5067927;28;20007;-67
2023/06/20 13:32:25;;;;;;;;;;;;;;;;;;5058643;28;20004;-67
2023/06/20 13:34:51;;;;;;;;;;;;;;;;;;5063082;28;19916;-67
2023/06/20 13:37:18;;;;;;;;;;;;;;;;;;5069197;28;19946;-67
2023/06/20 13:39:44;;;;;;;;;;;;;;;;;;5071924;28;19917;-67
2023/06/20 13:42:10;;;;;;;;;;;;;;;;;;5074507;28;20334;-67
2023/06/20 13:44:36;;;;;;;;;;;;;;;;;;5074417;28;19962;-67
2023/06/20 13:47:02;;;;;;;;;;;;;;;;;;5071338;28;19916;-66
2023/06/20 13:49:31;;;;;;;;;;;;;;;;;;5073621;28;20013;-67
2023/06/20 13:51:57;;;;;;;;;;;;;;;;;;5068628;28;20014;-67
2023/06/20 13:54:22;;;;;;;;;;;;;;;;;;5070550;28;20379;-67
2023/06/20 13:56:48;;;;;;;;;;;;;;;;;;5069578;28;20350;-67
2023/06/20 13:59:14;;;;;;;;;;;;;;;;;;5067091;28;20356;-67
2023/06/20 14:01:41;;;;;;;;;;;;;;;;;;5071415;28;20386;-67
2023/06/20 14:04:07;;;;;;;;;;;;;;;;;;5068004;28;20003;-65
2023/06/20 14:06:33;;;;;;;;;;;;;;;;;;5071642;28;19959;-67
2023/06/20 14:08:59;;;;;;;;;;;;;;;;;;5066955;28;20482;-67
2023/06/20 14:11:25;;;;;;;;;;;;;;;;;;5071404;28;20436;-65
2023/06/20 14:13:51;;;;;;;;;;;;;;;;;;5068048;28;20418;-65
2023/06/20 14:16:16;;;;;;;;;;;;;;;;;;5068145;28;19920;-65
2023/06/20 14:18:42;;;;;;;;;;;;;;;;;;5053104;28;20292;-64
2023/06/20 14:21:08;;;;;;;;;;;;;;;;;;5069366;28;19912;-65
2023/06/20 14:23:34;;;;;;;;;;;;;;;;;;5067016;28;19954;-67
2023/06/20 14:26:00;;;;;;;;;;;;;;;;;;5070947;28;19982;-65
2023/06/20 14:28:27;;;;;;;;;;;;;;;;;;5072510;28;20007;-65
2023/06/20 14:30:53;;;;;;;;;;;;;;;;;;5060089;28;19920;-65
2023/06/20 14:33:19;;;;;;;;;;;;;;;;;;5073915;28;19955;-65
2023/06/20 14:35:46;;;;;;;;;;;;;;;;;;5070019;28;20008;-66
2023/06/20 14:38:12;;;;;;;;;;;;;;;;;;5068048;28;19941;-65
2023/06/20 14:40:38;;;;;;;;;;;;;;;;;;5068380;28;20392;-65
2023/06/20 14:43:03;;;;;;;;;;;;;;;;;;5063902;28;19944;-65
2023/06/20 14:45:29;;;;;;;;;;;;;;;;;;5062180;28;19917;-65
2023/06/20 14:47:55;;;;;;;;;;;;;;;;;;5071349;28;19938;-66
2023/06/20 14:50:24;;;;;;;;;;;;;;;;;;5063140;28;19917;-65
2023/06/20 14:52:50;;;;;;;;;;;;;;;;;;5071883;28;19909;-65
2023/06/20 14:55:16;;;;;;;;;;;;;;;;;;5066803;28;19966;-66
2023/06/20 14:57:42;;;;;;;;;;;;;;;;;;5067178;28;20011;-65
2023/06/20 15:00:12;;;;;;;;;;;;;;;;;;5072305;28;19913;-65
2023/06/20 15:02:38;;;;;;;;;;;;;;;;;;5070627;28;20381;-65
2023/06/20 15:05:04;;;;;;;;;;;;;;;;;;5066800;28;19987;-65
2023/06/20 15:07:30;;;;;;;;;;;;;;;;;;5073420;28;19917;-65
2023/06/20 15:09:56;;;;;;;;;;;;;;;;;;5066628;28;20386;-65
2023/06/20 15:12:22;;;;;;;;;;;;;;;;;;5071012;28;19969;-66
2023/06/20 15:14:48;;;;;;;;;;;;;;;;;;5067400;28;20244;-65
2023/06/20 15:17:14;;;;;;;;;;;;;;;;;;5057094;28;19926;-65
2023/06/20 15:19:40;;;;;;;;;;;;;;;;;;5069025;28;19951;-65
2023/06/20 15:22:06;;;;;;;;;;;;;;;;;;5063891;28;19952;-67
2023/06/20 15:24:33;;;;;;;;;;;;;;;;;;5063647;28;20386;-66
2023/06/20 15:26:59;;;;;;;;;;;;;;;;;;5058596;28;20054;-65
2023/06/20 15:29:25;;;;;;;;;;;;;;;;;;5066882;28;20664;-66
2023/06/20 15:31:51;;;;;;;;;;;;;;;;;;5063516;28;20513;-65
2023/06/20 15:34:17;;;;;;;;;;;;;;;;;;5067574;28;19922;-65
2023/06/20 15:36:43;;;;;;;;;;;;;;;;;;5067802;28;19913;-65
2023/06/20 15:39:09;;;;;;;;;;;;;;;;;;5064143;28;19927;-65
2023/06/20 15:41:35;;;;;;;;;;;;;;;;;;5063492;28;19948;-65
2023/06/20 15:44:00;;;;;;;;;;;;;;;;;;5065611;28;20007;-61
2023/06/20 15:46:26;;;;;;;;;;;;;;;;;;5064653;28;19921;-61
2023/06/20 15:48:52;;;;;;;;;;;;;;;;;;5061015;28;20431;-61
2023/06/20 15:51:20;;;;;;;;;;;;;;;;;;5059823;28;19959;-61
2023/06/20 15:53:45;;;;;;;;;;;;;;;;;;5063567;28;20011;-62
2023/06/20 15:56:11;;;;;;;;;;;;;;;;;;5064356;28;19991;-62
2023/06/20 15:58:40;;;;;;;;;;;;;;;;;;5062450;28;19921;-61
2023/06/20 16:01:06;;;;;;;;;;;;;;;;;;5059828;28;21796;-61
2023/06/20 16:03:32;;;;;;;;;;;;;;;;;;5065752;28;19948;-62
2023/06/20 16:05:58;;;;;;;;;;;;;;;;;;5067099;28;19927;-61
2023/06/20 16:08:23;;;;;;;;;;;;;;;;;;5063943;28;20435;-61
2023/06/20 16:10:49;;;;;;;;;;;;;;;;;;5067224;28;19954;-62
2023/06/20 16:13:15;;;;;;;;;;;;;;;;;;5068011;28;20646;-61
2023/06/20 16:15:41;;;;;;;;;;;;;;;;;;5070549;28;20419;-61
2023/06/20 16:18:07;;;;;;;;;;;;;;;;;;5067764;28;20419;-61
2023/06/20 16:20:33;;;;;;;;;;;;;;;;;;5062076;28;19913;-61
2023/06/20 16:23:00;;;;;;;;;;;;;;;;;;5068825;28;20015;-61
2023/06/20 16:25:26;;;;;;;;;;;;;;;;;;5066695;28;19935;-61
2023/06/20 16:27:52;;;;;;;;;;;;;;;;;;5063074;28;19960;-61
2023/06/20 16:30:18;;;;;;;;;;;;;;;;;;5069009;28;19923;-62
2023/06/20 16:32:43;;;;;;;;;;;;;;;;;;5066223;28;20003;-61
2023/06/20 16:35:09;;;;;;;;;;;;;;;;;;5066448;28;19930;-61
2023/06/20 16:37:35;;;;;;;;;;;;;;;;;;5063325;28;19912;-62